createdAt,value
2018-01-11T00:00:52.261Z,84.2
2018-01-11T00:01:56.654Z,84.4
2018-01-11T00:03:02.284Z,84.3
2018-01-11T00:04:07.401Z,84.3
2018-01-11T00:05:14.474Z,84.4
2018-01-11T00:06:59.110Z,84.2
2018-01-11T00:08:03.896Z,84.3
2018-01-11T00:09:12.163Z,84.3
2018-01-11T00:10:19.091Z,84.4
2018-01-11T00:11:22.886Z,84.3
2018-01-11T00:12:29.536Z,84.2
2018-01-11T00:13:34.493Z,84.2
2018-01-11T00:14:37.816Z,84
2018-01-11T00:15:41.719Z,84
2018-01-11T00:16:46.614Z,84
2018-01-11T00:17:56.663Z,84
2018-01-11T00:19:00.051Z,84
2018-01-11T00:20:04.898Z,84
2018-01-11T00:21:09.813Z,83.9
2018-01-11T00:22:14.193Z,83.7
2018-01-11T00:23:18.610Z,84
2018-01-11T00:24:26.860Z,83.9
2018-01-11T00:25:33.051Z,84.1
2018-01-11T00:26:43.220Z,84.1
2018-01-11T00:27:48.627Z,84.2
2018-01-11T00:28:55.631Z,84.8
2018-01-11T00:30:00.435Z,83.9
2018-01-11T00:31:04.169Z,83.9
2018-01-11T00:32:07.547Z,83.9
2018-01-11T00:33:10.796Z,83.7
2018-01-11T00:34:14.361Z,83.6
2018-01-11T00:35:17.937Z,83.6
2018-01-11T00:36:21.187Z,83.5
2018-01-11T00:37:24.736Z,83.5
2018-01-11T00:38:28.229Z,83.6
2018-01-11T00:39:36.053Z,83.7
2018-01-11T00:40:39.469Z,83.6
2018-01-11T00:41:43.513Z,83.6
2018-01-11T00:42:46.882Z,83.5
2018-01-11T00:43:50.046Z,83.6
2018-01-11T00:44:53.256Z,83.7
2018-01-11T00:45:57.831Z,83.7
2018-01-11T00:47:01.809Z,83.7
2018-01-11T00:48:05.841Z,83.7
2018-01-11T00:49:09.240Z,83.7
2018-01-11T00:50:16.358Z,83.8
2018-01-11T00:51:20.396Z,83.8
2018-01-11T00:52:24.524Z,83.9
2018-01-11T00:53:27.674Z,84
2018-01-11T00:54:31.059Z,83.9
2018-01-11T00:55:35.116Z,83.8
2018-01-11T00:56:39.198Z,83.6
2018-01-11T00:57:42.783Z,83.7
2018-01-11T00:58:46.135Z,83.7
2018-01-11T00:59:49.649Z,83.6
2018-01-11T01:00:56.440Z,83.6
2018-01-11T01:02:00.470Z,83.7
2018-01-11T01:03:03.753Z,83.9
2018-01-11T01:04:07.106Z,83.9
2018-01-11T01:05:10.529Z,83.9
2018-01-11T01:06:13.733Z,84
2018-01-11T01:07:18.071Z,84
2018-01-11T01:08:21.510Z,84.2
2018-01-11T01:09:24.920Z,84.2
2018-01-11T01:10:28.391Z,84.3
2018-01-11T01:11:35.234Z,84.1
2018-01-11T01:12:38.591Z,84
2018-01-11T01:13:41.794Z,84
2018-01-11T01:14:45.150Z,83.9
2018-01-11T01:15:49.147Z,83.9
2018-01-11T01:16:53.194Z,83.8
2018-01-11T01:17:56.567Z,83.7
2018-01-11T01:19:00.937Z,83.7
2018-01-11T01:20:04.374Z,83.7
2018-01-11T01:21:07.645Z,83.6
2018-01-11T01:22:14.516Z,83.6
2018-01-11T01:23:17.747Z,83.7
2018-01-11T01:24:21.867Z,83.7
2018-01-11T01:25:25.285Z,83.7
2018-01-11T01:26:31.175Z,83.8
2018-01-11T01:27:34.234Z,83.6
2018-01-11T01:28:38.173Z,83.5
2018-01-11T01:29:41.671Z,83.6
2018-01-11T01:30:45.041Z,83.6
2018-01-11T01:31:49.221Z,83.3
2018-01-11T01:32:56.166Z,83.3
2018-01-11T01:34:00.220Z,83.3
2018-01-11T01:35:04.335Z,83.3
2018-01-11T01:36:07.902Z,83.4
2018-01-11T01:37:12.018Z,83.2
2018-01-11T01:38:16.346Z,83.2
2018-01-11T01:39:20.405Z,83.2
2018-01-11T01:40:24.321Z,83.1
2018-01-11T01:41:28.305Z,82.9
2018-01-11T01:42:32.440Z,83.2
2018-01-11T01:43:39.224Z,83.1
2018-01-11T01:44:43.916Z,83.1
2018-01-11T01:45:49.169Z,83.2
2018-01-11T01:46:53.356Z,83.2
2018-01-11T01:47:56.787Z,83.2
2018-01-11T01:49:00.952Z,83.4
2018-01-11T01:50:04.937Z,83.2
2018-01-11T01:51:08.943Z,83.2
2018-01-11T01:52:13.033Z,83.2
2018-01-11T01:53:16.513Z,83.3
2018-01-11T01:54:23.398Z,83.3
2018-01-11T01:55:26.796Z,83.3
2018-01-11T01:56:30.192Z,83.2
2018-01-11T01:57:33.390Z,83.4
2018-01-11T01:58:36.877Z,83.4
2018-01-11T01:59:40.394Z,83.5
2018-01-11T02:00:43.909Z,83.7
2018-01-11T02:01:47.393Z,83.8
2018-01-11T02:02:50.802Z,83.9
2018-01-11T02:03:54.906Z,83.9
2018-01-11T02:05:01.958Z,83.8
2018-01-11T02:06:05.961Z,84
2018-01-11T02:07:09.226Z,84
2018-01-11T02:08:12.633Z,84
2018-01-11T02:09:16.527Z,84
2018-01-11T02:10:20.333Z,83.8
2018-01-11T02:11:23.645Z,83.7
2018-01-11T02:12:27.291Z,83.7
2018-01-11T02:13:30.684Z,83.8
2018-01-11T02:14:34.054Z,83.8
2018-01-11T02:15:41.073Z,83.7
2018-01-11T02:16:44.365Z,83.8
2018-01-11T02:17:47.803Z,83.7
2018-01-11T02:18:51.207Z,83.8
2018-01-11T02:19:54.732Z,83.8
2018-01-11T02:20:58.156Z,83.8
2018-01-11T02:22:01.657Z,83.7
2018-01-11T02:23:05.128Z,83.9
2018-01-11T02:24:08.568Z,83.9
2018-01-11T02:25:11.983Z,84.1
2018-01-11T02:26:19.045Z,84.1
2018-01-11T02:27:23.247Z,84.2
2018-01-11T02:28:27.727Z,84.2
2018-01-11T02:29:31.295Z,84.1
2018-01-11T02:30:34.506Z,84.1
2018-01-11T02:31:37.995Z,84.2
2018-01-11T02:32:41.298Z,84.1
2018-01-11T02:33:44.486Z,84.3
2018-01-11T02:34:47.963Z,84.2
2018-01-11T02:35:51.394Z,84.3
2018-01-11T02:36:58.298Z,84.5
2018-01-11T02:38:02.540Z,84.3
2018-01-11T02:39:05.821Z,84.3
2018-01-11T02:40:09.976Z,84.2
2018-01-11T02:41:14.226Z,84.2
2018-01-11T02:42:17.592Z,84.2
2018-01-11T02:43:21.191Z,84.2
2018-01-11T02:44:25.555Z,84
2018-01-11T02:45:29.704Z,84
2018-01-11T02:46:33.084Z,84.2
2018-01-11T02:47:40.545Z,84.2
2018-01-11T02:48:44.415Z,84.5
2018-01-11T02:49:48.481Z,84.5
2018-01-11T02:50:51.874Z,84.5
2018-01-11T02:51:55.226Z,84.5
2018-01-11T02:52:59.712Z,84.4
2018-01-11T02:54:03.095Z,84.5
2018-01-11T02:55:06.559Z,84.5
2018-01-11T02:56:09.841Z,84.5
2018-01-11T02:57:14.545Z,84.5
2018-01-11T02:58:22.207Z,84.5
2018-01-11T02:59:25.439Z,84.5
2018-01-11T03:00:28.574Z,84.4
2018-01-11T03:01:32.031Z,84.4
2018-01-11T03:02:35.972Z,84.6
2018-01-11T03:03:39.123Z,84.7
2018-01-11T03:04:42.566Z,84.4
2018-01-11T03:05:45.880Z,85
2018-01-11T03:06:49.254Z,85
2018-01-11T03:07:52.692Z,85
2018-01-11T03:08:59.752Z,84.9
2018-01-11T03:10:03.941Z,84.9
2018-01-11T03:11:08.736Z,84.8
2018-01-11T03:12:12.102Z,84.7
2018-01-11T03:13:15.432Z,84.6
2018-01-11T03:14:18.739Z,84.8
2018-01-11T03:15:22.371Z,84.6
2018-01-11T03:16:26.343Z,84.5
2018-01-11T03:17:30.453Z,84.3
2018-01-11T03:18:34.163Z,84.3
2018-01-11T03:19:41.812Z,84.2
2018-01-11T03:20:45.882Z,84.2
2018-01-11T03:21:49.787Z,84
2018-01-11T03:22:53.679Z,83.9
2018-01-11T03:23:56.978Z,83.9
2018-01-11T03:25:01.036Z,83.9
2018-01-11T03:26:04.291Z,83.9
2018-01-11T03:27:07.668Z,83.9
2018-01-11T03:28:11.095Z,83.8
2018-01-11T03:29:14.698Z,83.9
2018-01-11T03:30:22.225Z,83.9
2018-01-11T03:31:26.920Z,83.9
2018-01-11T03:32:30.921Z,84.8
2018-01-11T03:33:35.467Z,84.3
2018-01-11T03:34:38.928Z,84.2
2018-01-11T03:35:42.465Z,84.1
2018-01-11T03:36:46.716Z,84.1
2018-01-11T03:37:51.008Z,84.2
2018-01-11T03:38:54.913Z,83.9
2018-01-11T03:39:57.946Z,83.9
2018-01-11T03:41:04.856Z,84
2018-01-11T03:42:08.113Z,84.1
2018-01-11T03:43:12.091Z,84.1
2018-01-11T03:44:15.524Z,84
2018-01-11T03:45:19.016Z,83.8
2018-01-11T03:46:22.610Z,83.9
2018-01-11T03:47:25.980Z,83.9
2018-01-11T03:48:29.420Z,83.8
2018-01-11T03:49:32.844Z,83.7
2018-01-11T03:50:36.178Z,83.8
2018-01-11T03:51:42.976Z,83.7
2018-01-11T03:52:46.398Z,83.7
2018-01-11T03:53:49.957Z,83.6
2018-01-11T03:54:53.075Z,83.6
2018-01-11T03:55:56.552Z,83.7
2018-01-11T03:56:59.854Z,83.9
2018-01-11T03:58:03.223Z,83.9
2018-01-11T03:59:06.690Z,83.9
2018-01-11T04:00:10.542Z,84
2018-01-11T04:01:13.999Z,84.1
2018-01-11T04:02:20.951Z,84.1
2018-01-11T04:03:24.247Z,84
2018-01-11T04:04:28.617Z,84
2018-01-11T04:05:32.193Z,83.9
2018-01-11T04:06:35.584Z,83.9
2018-01-11T04:07:39.174Z,83.8
2018-01-11T04:08:43.245Z,83.7
2018-01-11T04:09:46.534Z,83.9
2018-01-11T04:10:49.916Z,84.9
2018-01-11T04:11:52.886Z,84
2018-01-11T04:12:59.834Z,84.1
2018-01-11T04:14:04.645Z,84.2
2018-01-11T04:15:08.149Z,84.2
2018-01-11T04:16:11.703Z,84.3
2018-01-11T04:17:15.664Z,84.2
2018-01-11T04:18:18.974Z,84.3
2018-01-11T04:19:22.383Z,84.3
2018-01-11T04:20:25.860Z,84.2
2018-01-11T04:21:29.906Z,84.3
2018-01-11T04:22:33.734Z,84.2
2018-01-11T04:23:43.058Z,84
2018-01-11T04:24:47.523Z,83.8
2018-01-11T04:25:50.849Z,83.7
2018-01-11T04:26:54.281Z,84
2018-01-11T04:27:59.282Z,84
2018-01-11T04:29:02.451Z,84
2018-01-11T04:30:07.769Z,84.6
2018-01-11T04:31:12.079Z,83.8
2018-01-11T04:32:16.124Z,83.7
2018-01-11T04:33:21.783Z,83.6
2018-01-11T04:34:29.755Z,83.4
2018-01-11T04:35:32.802Z,83.4
2018-01-11T04:36:36.806Z,83.4
2018-01-11T04:37:40.742Z,83.4
2018-01-11T04:38:44.177Z,83.4
2018-01-11T04:39:48.142Z,83.3
2018-01-11T04:40:54.462Z,83.4
2018-01-11T04:41:58.416Z,84.3
2018-01-11T04:43:02.116Z,83.5
2018-01-11T04:44:06.053Z,83.2
2018-01-11T04:45:14.365Z,83.2
2018-01-11T04:46:18.194Z,83.1
2018-01-11T04:47:23.200Z,82.9
2018-01-11T04:48:28.747Z,82.8
2018-01-11T04:49:31.911Z,82.7
2018-01-11T04:50:35.929Z,82.9
2018-01-11T04:51:39.164Z,83
2018-01-11T04:52:43.228Z,83
2018-01-11T04:53:48.227Z,83.1
2018-01-11T04:54:51.374Z,83
2018-01-11T04:56:30.939Z,82.8
2018-01-11T04:57:34.377Z,83.1
2018-01-11T04:58:39.120Z,83.1
2018-01-11T04:59:42.376Z,82.8
2018-01-11T05:00:46.327Z,82.7
2018-01-11T05:01:50.427Z,82.7
2018-01-11T05:02:54.301Z,82.8
2018-01-11T05:03:57.760Z,82.7
2018-01-11T05:05:01.872Z,82.6
2018-01-11T05:06:05.898Z,82.4
2018-01-11T05:07:13.442Z,82.5
2018-01-11T05:08:17.413Z,82.5
2018-01-11T05:09:21.537Z,82.6
2018-01-11T05:10:25.019Z,82.4
2018-01-11T05:11:28.388Z,82.5
2018-01-11T05:12:32.381Z,82.4
2018-01-11T05:13:36.573Z,82.5
2018-01-11T05:14:40.141Z,82.3
2018-01-11T05:15:44.914Z,82.2
2018-01-11T05:16:48.877Z,82.2
2018-01-11T05:17:56.127Z,82.4
2018-01-11T05:18:59.516Z,82
2018-01-11T05:20:03.634Z,82.2
2018-01-11T05:21:07.278Z,82.4
2018-01-11T05:22:11.088Z,82.4
2018-01-11T05:23:14.473Z,82.6
2018-01-11T05:24:19.959Z,82.5
2018-01-11T05:25:23.982Z,82.4
2018-01-11T05:26:29.510Z,82.7
2018-01-11T05:27:35.207Z,82.3
2018-01-11T05:28:42.001Z,82.4
2018-01-11T05:29:46.090Z,82.5
2018-01-11T05:30:49.691Z,82.8
2018-01-11T05:31:54.094Z,83.5
2018-01-11T05:33:00.451Z,82.7
2018-01-11T05:34:03.965Z,82.8
2018-01-11T05:35:09.249Z,82.8
2018-01-11T05:36:13.905Z,82.9
2018-01-11T05:37:19.710Z,82.7
2018-01-11T05:38:23.696Z,82.8
2018-01-11T05:40:03.057Z,82.8
2018-01-11T05:41:07.177Z,82.8
2018-01-11T05:42:12.353Z,82.9
2018-01-11T05:43:16.099Z,82.9
2018-01-11T05:44:20.873Z,82.9
2018-01-11T05:45:25.443Z,82.9
2018-01-11T05:46:29.286Z,82.9
2018-01-11T05:47:33.993Z,82.8
2018-01-11T05:48:37.804Z,83.4
2018-01-11T05:49:42.794Z,82.8
2018-01-11T05:50:52.672Z,82.7
2018-01-11T05:51:57.128Z,82.7
2018-01-11T05:53:01.211Z,82.8
2018-01-11T05:54:05.803Z,82.9
2018-01-11T05:55:09.014Z,82.7
2018-01-11T05:56:12.373Z,82.7
2018-01-11T05:57:17.233Z,82.7
2018-01-11T05:58:21.134Z,82.7
2018-01-11T05:59:26.516Z,82.8
2018-01-11T06:00:32.765Z,82.9
2018-01-11T06:01:41.071Z,82.8
2018-01-11T06:02:44.526Z,82.9
2018-01-11T06:03:50.068Z,82.9
2018-01-11T06:04:54.264Z,82.8
2018-01-11T06:05:58.464Z,83
2018-01-11T06:07:12.055Z,83
2018-01-11T06:08:26.141Z,83
2018-01-11T06:09:31.593Z,82.9
2018-01-11T06:10:36.683Z,82.9
2018-01-11T06:11:40.080Z,82.9
2018-01-11T06:13:02.661Z,82.9
2018-01-11T06:14:08.679Z,82.9
2018-01-11T06:15:12.549Z,83
2018-01-11T06:16:18.477Z,83
2018-01-11T06:17:21.835Z,82.8
2018-01-11T06:18:27.805Z,82.8
2018-01-11T06:19:32.053Z,82.7
2018-01-11T06:20:36.727Z,82.5
2018-01-11T06:21:40.046Z,82.7
2018-01-11T06:22:46.639Z,82.7
2018-01-11T06:23:55.610Z,82.7
2018-01-11T06:25:01.393Z,82.8
2018-01-11T06:26:05.433Z,82.7
2018-01-11T06:27:10.988Z,82.9
2018-01-11T06:28:16.687Z,82.9
2018-01-11T06:29:20.407Z,82.9
2018-01-11T06:30:26.485Z,82.9
2018-01-11T06:31:32.093Z,82.7
2018-01-11T06:32:37.818Z,82.8
2018-01-11T06:33:41.388Z,82.9
2018-01-11T06:34:51.189Z,82.8
2018-01-11T06:35:55.116Z,82.8
2018-01-11T06:36:59.203Z,82.7
2018-01-11T06:38:03.279Z,82.7
2018-01-11T06:39:08.661Z,82.6
2018-01-11T06:40:12.712Z,82.6
2018-01-11T06:41:17.151Z,82.7
2018-01-11T06:42:21.223Z,82.5
2018-01-11T06:43:24.683Z,82.7
2018-01-11T06:44:28.061Z,82.6
2018-01-11T06:45:35.564Z,82.7
2018-01-11T06:46:39.892Z,82.7
2018-01-11T06:47:45.426Z,82.8
2018-01-11T06:48:49.415Z,82.6
2018-01-11T06:49:56.990Z,82.7
2018-01-11T06:51:00.856Z,82.6
2018-01-11T06:52:04.403Z,82.9
2018-01-11T06:53:07.883Z,82.7
2018-01-11T06:54:11.249Z,82.6
2018-01-11T06:55:28.122Z,82.4
2018-01-11T06:57:41.533Z,82.4
2018-01-11T06:58:45.231Z,82.2
2018-01-11T06:59:48.666Z,82.1
2018-01-11T07:00:53.528Z,81.8
2018-01-11T07:01:58.250Z,81.6
2018-01-11T07:03:04.420Z,81.5
2018-01-11T07:04:08.969Z,81.5
2018-01-11T07:05:13.656Z,81.6
2018-01-11T07:06:18.321Z,81.6
2018-01-11T07:07:23.584Z,81.5
2018-01-11T07:08:32.804Z,81.5
2018-01-11T07:09:37.537Z,81.5
2018-01-11T07:10:41.538Z,81.5
2018-01-11T07:11:47.006Z,81.4
2018-01-11T07:12:50.974Z,81.3
2018-01-11T07:13:55.108Z,81.3
2018-01-11T07:14:59.143Z,81.5
2018-01-11T07:16:05.175Z,81.2
2018-01-11T07:17:09.063Z,81.1
2018-01-11T07:18:13.268Z,81.1
2018-01-11T07:19:56.906Z,81
2018-01-11T07:21:01.043Z,81
2018-01-11T07:22:04.643Z,81.1
2018-01-11T07:23:08.030Z,81.1
2018-01-11T07:24:12.798Z,80.9
2018-01-11T07:25:16.076Z,81.2
2018-01-11T07:26:20.825Z,81.4
2018-01-11T07:27:25.824Z,81.1
2018-01-11T07:28:33.434Z,81.2
2018-01-11T07:29:37.974Z,81.2
2018-01-11T07:30:48.346Z,81.1
2018-01-11T07:31:53.946Z,81.3
2018-01-11T07:32:58.590Z,81.2
2018-01-11T07:34:01.921Z,81.3
2018-01-11T07:35:05.869Z,81.1
2018-01-11T07:36:11.837Z,81.1
2018-01-11T07:37:16.742Z,81.3
2018-01-11T07:38:20.753Z,81.3
2018-01-11T07:39:25.788Z,81.2
2018-01-11T07:40:32.322Z,81.2
2018-01-11T07:41:41.027Z,81.1
2018-01-11T07:42:45.972Z,81.3
2018-01-11T07:43:50.419Z,81.1
2018-01-11T07:44:54.782Z,81.2
2018-01-11T07:45:59.310Z,81.1
2018-01-11T07:47:04.173Z,81.2
2018-01-11T07:48:11.710Z,81
2018-01-11T07:49:15.668Z,81.1
2018-01-11T07:50:20.539Z,81.3
2018-01-11T07:51:26.164Z,81.2
2018-01-11T07:52:36.351Z,81.1
2018-01-11T07:53:42.629Z,81.3
2018-01-11T07:54:46.182Z,81.4
2018-01-11T07:55:53.659Z,81.5
2018-01-11T07:56:59.888Z,81.5
2018-01-11T07:58:06.092Z,81.4
2018-01-11T07:59:13.527Z,81.5
2018-01-11T08:00:18.209Z,81.4
2018-01-11T08:01:27.611Z,81.6
2018-01-11T08:02:39.981Z,81.2
2018-01-11T08:03:48.075Z,81.5
2018-01-11T08:04:53.968Z,81.5
2018-01-11T08:05:58.123Z,81.5
2018-01-11T08:07:05.900Z,81.3
2018-01-11T08:08:16.367Z,81.2
2018-01-11T08:09:24.313Z,82
2018-01-11T08:10:29.905Z,81.1
2018-01-11T08:11:38.685Z,81.1
2018-01-11T08:12:44.910Z,81.3
2018-01-11T08:14:02.008Z,81.3
2018-01-11T08:15:18.144Z,82.2
2018-01-11T08:16:26.120Z,81.3
2018-01-11T08:17:31.847Z,81.3
2018-01-11T08:18:43.020Z,81.4
2018-01-11T08:19:52.120Z,81.5
2018-01-11T08:21:04.587Z,81.5
2018-01-11T08:22:11.611Z,81.5
2018-01-11T08:23:19.230Z,81.6
2018-01-11T08:24:26.110Z,81.6
2018-01-11T08:25:32.176Z,81.8
2018-01-11T08:26:46.715Z,81.8
2018-01-11T08:27:54.340Z,81.6
2018-01-11T08:29:02.069Z,81.8
2018-01-11T08:30:08.214Z,82.1
2018-01-11T08:31:13.341Z,81.9
2018-01-11T08:32:17.867Z,81.9
2018-01-11T08:33:24.922Z,81.8
2018-01-11T08:34:37.234Z,81.9
2018-01-11T08:35:46.603Z,81.9
2018-01-11T08:36:53.620Z,81.7
2018-01-11T08:38:07.276Z,82
2018-01-11T08:39:13.851Z,81.9
2018-01-11T08:40:18.914Z,81.9
2018-01-11T08:41:24.909Z,81.7
2018-01-11T08:42:30.065Z,81.7
2018-01-11T08:43:35.258Z,81.8
2018-01-11T08:44:42.181Z,81.8
2018-01-11T08:45:48.062Z,81.8
2018-01-11T08:46:54.013Z,81.3
2018-01-11T08:48:00.891Z,81.4
2018-01-11T08:49:43.523Z,81.3
2018-01-11T08:50:48.470Z,81.3
2018-01-11T08:51:55.094Z,81.4
2018-01-11T08:53:03.325Z,81.4
2018-01-11T08:54:11.743Z,81.3
2018-01-11T08:55:17.045Z,81.8
2018-01-11T08:56:22.068Z,80.9
2018-01-11T08:57:26.900Z,81.1
2018-01-11T08:58:32.973Z,80.7
2018-01-11T08:59:37.593Z,81
2018-01-11T09:00:46.449Z,81.2
2018-01-11T09:01:51.779Z,81.3
2018-01-11T09:02:56.048Z,81.3
2018-01-11T09:04:01.494Z,81.2
2018-01-11T09:05:05.260Z,81.1
2018-01-11T09:06:08.966Z,81.3
2018-01-11T09:07:17.237Z,81.3
2018-01-11T09:08:23.069Z,81.2
2018-01-11T09:09:26.805Z,81.2
2018-01-11T09:10:30.458Z,81.3
2018-01-11T09:12:10.016Z,81.2
2018-01-11T09:13:13.785Z,81.2
2018-01-11T09:14:17.539Z,80.9
2018-01-11T09:15:21.943Z,81
2018-01-11T09:16:25.677Z,80.8
2018-01-11T09:17:30.562Z,81
2018-01-11T09:18:35.613Z,81.1
2018-01-11T09:19:39.427Z,81
2018-01-11T09:20:44.003Z,80.9
2018-01-11T09:21:48.325Z,81.1
2018-01-11T09:22:58.214Z,81
2018-01-11T09:24:02.908Z,81
2018-01-11T09:25:07.330Z,81.2
2018-01-11T09:26:10.753Z,80.8
2018-01-11T09:27:16.397Z,81.2
2018-01-11T09:28:22.422Z,81.2
2018-01-11T09:29:26.670Z,80.7
2018-01-11T09:30:32.037Z,80.7
2018-01-11T09:31:37.641Z,81.6
2018-01-11T09:32:42.541Z,80.9
2018-01-11T09:33:52.835Z,80.8
2018-01-11T09:34:57.146Z,80.7
2018-01-11T09:36:01.508Z,80.4
2018-01-11T09:37:09.010Z,80.4
2018-01-11T09:38:13.903Z,80.7
2018-01-11T09:39:22.096Z,80.5
2018-01-11T09:40:27.034Z,80.7
2018-01-11T09:41:32.417Z,80.7
2018-01-11T09:42:40.816Z,80.7
2018-01-11T09:43:47.019Z,80.7
2018-01-11T09:45:31.299Z,80.7
2018-01-11T09:46:36.457Z,80.7
2018-01-11T09:47:42.220Z,80.5
2018-01-11T09:48:50.935Z,80.4
2018-01-11T09:50:00.548Z,80.2
2018-01-11T09:51:06.741Z,80.3
2018-01-11T09:52:17.418Z,80.4
2018-01-11T09:53:23.631Z,80.1
2018-01-11T09:54:30.010Z,80.1
2018-01-11T09:55:37.467Z,80.3
2018-01-11T09:56:51.226Z,80.2
2018-01-11T09:57:59.771Z,80.4
2018-01-11T09:59:09.443Z,80.4
2018-01-11T10:00:15.177Z,80
2018-01-11T10:01:24.926Z,79.9
2018-01-11T10:02:33.614Z,80.2
2018-01-11T10:03:44.179Z,80.1
2018-01-11T10:04:50.182Z,80.1
2018-01-11T10:06:00.074Z,80.2
2018-01-11T10:07:09.956Z,80.3
2018-01-11T10:09:29.325Z,80.3
2018-01-11T10:10:38.185Z,80.1
2018-01-11T10:11:45.687Z,79.7
2018-01-11T10:12:55.710Z,79.9
2018-01-11T10:14:04.989Z,80
2018-01-11T10:15:11.937Z,79.5
2018-01-11T10:16:18.374Z,79.9
2018-01-11T10:17:25.294Z,79.8
2018-01-11T10:18:40.774Z,80
2018-01-11T10:19:48.599Z,79.7
2018-01-11T10:20:59.675Z,80.2
2018-01-11T10:22:07.879Z,80.1
2018-01-11T10:23:13.365Z,80
2018-01-11T10:24:20.481Z,80.4
2018-01-11T10:25:31.060Z,80.5
2018-01-11T10:26:39.082Z,80.4
2018-01-11T10:27:46.773Z,80.8
2018-01-11T10:28:53.624Z,80.8
2018-01-11T10:30:02.446Z,80.9
2018-01-11T10:31:10.528Z,80.7
2018-01-11T10:32:24.877Z,80.8
2018-01-11T10:33:29.920Z,80.8
2018-01-11T10:34:37.890Z,80.7
2018-01-11T10:35:46.572Z,80.8
2018-01-11T10:36:58.387Z,81
2018-01-11T10:38:07.799Z,81.1
2018-01-11T10:39:19.775Z,81
2018-01-11T10:40:30.988Z,81.6
2018-01-11T10:41:36.863Z,81.1
2018-01-11T10:42:45.919Z,81.3
2018-01-11T10:44:02.637Z,81.5
2018-01-11T10:45:10.513Z,81.6
2018-01-11T10:46:21.453Z,82.1
2018-01-11T10:47:26.661Z,81.9
2018-01-11T10:48:36.283Z,81.8
2018-01-11T10:49:44.837Z,82.2
2018-01-11T10:50:49.702Z,82.1
2018-01-11T10:52:01.080Z,82.1
2018-01-11T10:53:09.194Z,82.4
2018-01-11T10:54:16.958Z,82.4
2018-01-11T10:55:37.177Z,82.5
2018-01-11T10:56:47.147Z,82.8
2018-01-11T10:57:51.667Z,83
2018-01-11T10:59:00.041Z,83.1
2018-01-11T11:00:08.063Z,82.9
2018-01-11T11:01:12.987Z,82.8
2018-01-11T11:02:19.207Z,83.1
2018-01-11T11:03:29.683Z,83.1
2018-01-11T11:04:35.104Z,83.1
2018-01-11T11:05:46.784Z,83.6
2018-01-11T11:07:02.460Z,83.4
2018-01-11T11:08:10.995Z,83.4
2018-01-11T11:09:17.420Z,83.6
2018-01-11T11:10:30.538Z,83.6
2018-01-11T11:11:36.213Z,83.8
2018-01-11T11:12:44.759Z,83.8
2018-01-11T11:13:51.432Z,84.2
2018-01-11T11:15:00.572Z,84.3
2018-01-11T11:16:07.312Z,84.5
2018-01-11T11:17:16.616Z,84.6
2018-01-11T11:18:30.665Z,84.5
2018-01-11T11:19:34.186Z,84.7
2018-01-11T11:20:41.450Z,85.1
2018-01-11T11:21:50.254Z,84.8
2018-01-11T11:22:55.576Z,85
2018-01-11T11:24:00.541Z,85.2
2018-01-11T11:25:08.515Z,84.9
2018-01-11T11:26:14.751Z,84.7
2018-01-11T11:27:20.277Z,85
2018-01-11T11:28:26.614Z,84.8
2018-01-11T11:29:37.026Z,84.3
2018-01-11T11:30:40.780Z,84.9
2018-01-11T11:31:45.036Z,85
2018-01-11T11:32:49.576Z,85
2018-01-11T11:33:53.282Z,85.1
2018-01-11T11:34:56.719Z,85.4
2018-01-11T11:36:00.373Z,85.4
2018-01-11T11:37:06.461Z,85.4
2018-01-11T11:38:14.069Z,85.5
2018-01-11T11:39:19.064Z,85.4
2018-01-11T11:40:28.255Z,85.3
2018-01-11T11:41:32.679Z,85.4
2018-01-11T11:42:37.438Z,85.3
2018-01-11T11:43:42.418Z,85.3
2018-01-11T11:44:46.755Z,85.1
2018-01-11T11:45:50.481Z,85
2018-01-11T11:46:54.141Z,84.9
2018-01-11T11:47:58.707Z,85.1
2018-01-11T11:49:02.932Z,85.8
2018-01-11T11:50:06.693Z,85.8
2018-01-11T11:51:17.105Z,85.9
2018-01-11T11:52:24.682Z,85.6
2018-01-11T11:53:32.161Z,85.6
2018-01-11T11:54:37.837Z,85.3
2018-01-11T11:55:43.442Z,85.1
2018-01-11T11:56:50.065Z,85
2018-01-11T11:57:57.778Z,84.9
2018-01-11T11:59:01.541Z,84.9
2018-01-11T12:00:05.361Z,84.7
2018-01-11T12:01:09.736Z,84.6
2018-01-11T12:02:18.768Z,84.5
2018-01-11T12:03:22.456Z,84.5
2018-01-11T12:04:27.190Z,84.4
2018-01-11T12:05:32.011Z,84.3
2018-01-11T12:06:35.841Z,84.3
2018-01-11T12:07:39.614Z,84
2018-01-11T12:08:45.822Z,83.9
2018-01-11T12:09:52.336Z,84
2018-01-11T12:10:57.626Z,83.8
2018-01-11T12:12:02.076Z,83.9
2018-01-11T12:13:12.018Z,83.7
2018-01-11T12:14:15.803Z,83.8
2018-01-11T12:15:19.551Z,84.1
2018-01-11T12:16:25.423Z,84.2
2018-01-11T12:17:29.186Z,84.3
2018-01-11T12:18:33.858Z,84.4
2018-01-11T12:19:39.385Z,84.4
2018-01-11T12:20:43.880Z,84.1
2018-01-11T12:21:50.246Z,84.1
2018-01-11T12:22:54.097Z,83.9
2018-01-11T12:24:02.053Z,83.9
2018-01-11T12:25:07.189Z,83.7
2018-01-11T12:26:11.580Z,83.7
2018-01-11T12:27:17.146Z,83.8
2018-01-11T12:28:21.345Z,83.9
2018-01-11T12:29:26.697Z,84.2
2018-01-11T12:30:31.798Z,84.2
2018-01-11T12:31:37.686Z,84.2
2018-01-11T12:32:42.518Z,84.1
2018-01-11T12:33:47.214Z,84.1
2018-01-11T12:35:27.534Z,84.4
2018-01-11T12:36:34.265Z,84.3
2018-01-11T12:37:38.540Z,84.5
2018-01-11T12:38:42.089Z,84.5
2018-01-11T12:39:45.824Z,84.5
2018-01-11T12:40:49.541Z,84.5
2018-01-11T12:41:54.534Z,84.6
2018-01-11T12:42:58.242Z,84.4
2018-01-11T12:44:02.022Z,84.4
2018-01-11T12:45:05.783Z,84.5
2018-01-11T12:46:15.283Z,84.5
2018-01-11T12:47:18.985Z,84.4
2018-01-11T12:48:24.730Z,84.4
2018-01-11T12:49:28.431Z,85
2018-01-11T12:50:32.207Z,84.7
2018-01-11T12:51:35.947Z,84.5
2018-01-11T12:52:39.700Z,84.3
2018-01-11T12:53:47.698Z,84.2
2018-01-11T12:54:52.354Z,84.2
2018-01-11T12:55:56.071Z,84.3
2018-01-11T12:57:04.957Z,84.4
2018-01-11T12:58:09.275Z,84.5
2018-01-11T12:59:15.236Z,84.5
2018-01-11T13:00:19.514Z,84.4
2018-01-11T13:01:23.051Z,84.3
2018-01-11T13:02:26.813Z,84.5
2018-01-11T13:03:33.368Z,84.6
2018-01-11T13:04:37.108Z,84.5
2018-01-11T13:05:40.867Z,84.2
2018-01-11T13:06:45.838Z,84.2
2018-01-11T13:07:53.365Z,84.2
2018-01-11T13:08:56.790Z,84.2
2018-01-11T13:10:00.516Z,84
2018-01-11T13:11:04.293Z,83.8
2018-01-11T13:12:07.945Z,83.3
2018-01-11T13:13:12.265Z,83.2
2018-01-11T13:14:17.047Z,83.2
2018-01-11T13:15:20.780Z,83.2
2018-01-11T13:16:25.829Z,83.2
2018-01-11T13:17:30.248Z,83
2018-01-11T13:18:37.812Z,82.7
2018-01-11T13:19:42.206Z,82.7
2018-01-11T13:20:48.173Z,82.7
2018-01-11T13:21:53.872Z,83.2
2018-01-11T13:22:57.480Z,82.6
2018-01-11T13:24:01.238Z,82.8
2018-01-11T13:25:05.013Z,82.6
2018-01-11T13:26:08.700Z,82.5
2018-01-11T13:27:12.449Z,82.1
2018-01-11T13:28:17.441Z,82.5
2018-01-11T13:29:27.150Z,82.2
2018-01-11T13:30:30.953Z,82.3
2018-01-11T13:31:34.698Z,82.3
2018-01-11T13:32:38.442Z,82.5
2018-01-11T13:33:44.599Z,82.5
2018-01-11T13:34:53.314Z,82.1
2018-01-11T13:35:57.060Z,81.9
2018-01-11T13:37:00.614Z,82.1
2018-01-11T13:38:04.369Z,82.4
2018-01-11T13:39:08.069Z,82.4
2018-01-11T13:40:15.626Z,82.4
2018-01-11T13:41:19.350Z,82.5
2018-01-11T13:42:25.227Z,82.7
2018-01-11T13:43:29.936Z,82.4
2018-01-11T13:44:34.308Z,82.3
2018-01-11T13:45:39.714Z,82.7
2018-01-11T13:46:45.430Z,82.5
2018-01-11T13:47:53.485Z,82.3
2018-01-11T13:49:01.968Z,82.5
2018-01-11T13:50:08.126Z,82.4
2018-01-11T13:51:16.666Z,82.5
2018-01-11T13:52:21.094Z,82.1
2018-01-11T13:53:24.826Z,82
2018-01-11T13:54:29.291Z,82
2018-01-11T13:55:33.079Z,82
2018-01-11T13:56:37.785Z,82.1
2018-01-11T13:57:41.616Z,82.5
2018-01-11T13:58:45.129Z,82.5
2018-01-11T13:59:49.453Z,82.5
2018-01-11T14:00:53.268Z,82.5
2018-01-11T14:02:33.347Z,82.4
2018-01-11T14:03:37.765Z,82.3
2018-01-11T14:04:41.550Z,82.3
2018-01-11T14:05:45.935Z,82.4
2018-01-11T14:06:49.697Z,82.1
2018-01-11T14:07:53.478Z,82.1
2018-01-11T14:08:57.871Z,82.1
2018-01-11T14:10:01.592Z,82.2
2018-01-11T14:11:05.356Z,82.2
2018-01-11T14:12:12.982Z,82.2
2018-01-11T14:13:22.634Z,82.4
2018-01-11T14:14:29.407Z,82.4
2018-01-11T14:15:33.200Z,82.6
2018-01-11T14:16:36.938Z,82.7
2018-01-11T14:17:40.940Z,82.9
2018-01-11T14:18:44.717Z,83
2018-01-11T14:19:48.456Z,83
2018-01-11T14:20:52.205Z,82.8
2018-01-11T14:21:57.099Z,82.9
2018-01-11T14:23:00.841Z,83.2
2018-01-11T14:24:09.274Z,83.1
2018-01-11T14:25:13.010Z,83.2
2018-01-11T14:26:16.709Z,83.4
2018-01-11T14:27:21.064Z,83.4
2018-01-11T14:28:24.706Z,83.5
2018-01-11T14:29:29.322Z,83.5
2018-01-11T14:30:33.642Z,83.7
2018-01-11T14:31:37.218Z,83.9
2018-01-11T14:32:41.798Z,83.9
2018-01-11T14:33:46.136Z,83.8
2018-01-11T14:34:53.699Z,83.9
2018-01-11T14:35:57.529Z,83.9
2018-01-11T14:37:02.599Z,84
2018-01-11T14:38:07.653Z,84
2018-01-11T14:39:12.126Z,84.1
2018-01-11T14:40:16.527Z,84.2
2018-01-11T14:41:21.493Z,84.1
2018-01-11T14:42:25.715Z,84.3
2018-01-11T14:43:29.854Z,84.3